Tina-c — 2APY2 — position and weather

sailwx.info

Track history (hours):
 
Tides and Currents Weather Stations Pressure Air Temp Water Temp Dewpoint Dewpoint Depression Visibility Wind Speed Wind Dir Waves Ship Positions

Tina-c

Last reported at 2017-Apr-26 09:17 UTC. Time now 2017-Apr-28 00:44 UTC.
Position N 43°49' W 005°15'.

Length 99 m; draft 6.5 m.

Type: Cargo ship. MMSI: 235061987.

Date/timePositionNaut miles runAvg speedWind from/ knotsBaromVisibWave heightAir tempDewpointWater temp
2017-Apr-26 09:17N 43°49' W 005°15'  
2017-Apr-23 10:49N 43°48' W 005°11'2 7.1
2017-Apr-23 10:30N 43°48' W 005°14'4 7.3
2017-Apr-23 09:56N 43°48' W 005°20'3 7.4
2017-Apr-23 09:30N 43°48' W 005°24'4 7.4
2017-Apr-23 08:57N 43°48' W 005°30'4 7.4
2017-Apr-23 08:27N 43°48' W 005°35'3 7.5
2017-Apr-23 08:00N 43°48' W 005°40'4 7.6
2017-Apr-23 07:29N 43°48' W 005°45'5 9.1
2017-Apr-23 06:58N 43°48' W 005°52'  
2017-Apr-18 03:01N 40°43' W 009°48'0 9.7
2017-Apr-18 03:01N 40°43' W 009°48'5 9.9
2017-Apr-18 02:30N 40°38' W 009°49'1210.0
2017-Apr-18 01:18N 40°25' W 009°49'410.0
2017-Apr-18 00:53N 40°21' W 009°49'4 9.7
2017-Apr-18 00:30N 40°18' W 009°49'5 9.4
2017-Apr-18 00:00N 40°13' W 009°50'5 9.6
2017-Apr-17 23:30N 40°08' W 009°50'510.0
2017-Apr-17 23:00N 40°03' W 009°50'9 9.8
2017-Apr-17 22:03N 39°54' W 009°50'0 9.9
2017-Apr-17 22:00N 39°53' W 009°50'5 9.8
2017-Apr-17 21:30N 39°49' W 009°50'5 9.6
2017-Apr-17 21:01N 39°44' W 009°50'5 9.8
2017-Apr-17 20:30N 39°39' W 009°50'5 9.5
2017-Apr-17 20:00N 39°34' W 009°50'5 9.3
2017-Apr-17 19:30N 39°29' W 009°50'5 9.4
2017-Apr-17 19:00N 39°25' W 009°50'5 9.6
2017-Apr-17 18:30N 39°20' W 009°50'5 9.7
2017-Apr-17 18:00N 39°15' W 009°51'5 9.2
2017-Apr-17 17:30N 39°10' W 009°51'5 9.2
2017-Apr-17 17:00N 39°06' W 009°51'5 9.2
2017-Apr-17 16:30N 39°01' W 009°51'5 9.1
2017-Apr-17 16:01N 38°57' W 009°51'5 9.4
2017-Apr-17 15:31N 38°52' W 009°50'5 9.7
2017-Apr-17 15:01N 38°47' W 009°50'9 9.4
2017-Apr-17 14:01N 38°38' W 009°49'5 9.4
2017-Apr-17 13:31N 38°33' W 009°48'5 9.7
2017-Apr-17 13:01N 38°29' W 009°47'5 9.9
2017-Apr-17 12:31N 38°24' W 009°45'510.0
2017-Apr-17 12:01N 38°19' W 009°44'510.2
2017-Apr-17 11:31N 38°14' W 009°42'510.1
2017-Apr-17 11:00N 38°09' W 009°41'510.1
2017-Apr-17 10:31N 38°04' W 009°40'510.2
2017-Apr-17 10:00N 37°59' W 009°38'510.0
2017-Apr-17 09:30N 37°54' W 009°37'510.1
2017-Apr-17 09:01N 37°49' W 009°35'510.2
2017-Apr-17 08:31N 37°44' W 009°34'510.7
2017-Apr-17 08:01N 37°39' W 009°32'510.7
2017-Apr-17 07:31N 37°34' W 009°31'510.6
2017-Apr-17 07:01N 37°29' W 009°30'510.5
2017-Apr-17 06:31N 37°24' W 009°28'510.5
2017-Apr-17 06:01N 37°19' W 009°26'510.8
2017-Apr-17 05:31N 37°13' W 009°25'510.7
2017-Apr-17 05:01N 37°08' W 009°23'510.6
2017-Apr-17 04:31N 37°03' W 009°22'510.6
2017-Apr-17 04:00N 36°58' W 009°21'510.3
2017-Apr-17 03:30N 36°53' W 009°19'510.3
2017-Apr-17 03:00N 36°49' W 009°14'510.2
2017-Apr-17 02:31N 36°46' W 009°10'510.0
2017-Apr-17 02:01N 36°43' W 009°04'510.4
2017-Apr-17 01:30N 36°42' W 008°58'6 9.7
2017-Apr-17 00:56N 36°37' W 008°54'610.6
2017-Apr-17 00:24N 36°32' W 008°51'410.9
2017-Apr-17 00:00N 36°28' W 008°49'510.9
2017-Apr-16 23:30N 36°23' W 008°47'  
Track history (hours):
 
Tides and Currents Weather Stations Pressure Air Temp Water Temp Dewpoint Dewpoint Depression Visibility Wind Speed Wind Dir Waves Ship Positions

Tina-c

Last reported at 2017-Apr-26 09:17 UTC. Time now 2017-Apr-28 00:44 UTC.
Position N 43°49' W 005°15'.

Length 99 m; draft 6.5 m.

Type: Cargo ship. MMSI: 235061987.

Date/timePositionNaut miles runAvg speedWind from/ knotsBaromVisibWave heightAir tempDewpointWater temp
2017-Apr-26 09:17N 43°49' W 005°15'  
2017-Apr-23 10:49N 43°48' W 005°11'2 7.1
2017-Apr-23 10:30N 43°48' W 005°14'4 7.3
2017-Apr-23 09:56N 43°48' W 005°20'3 7.4
2017-Apr-23 09:30N 43°48' W 005°24'4 7.4
2017-Apr-23 08:57N 43°48' W 005°30'4 7.4
2017-Apr-23 08:27N 43°48' W 005°35'3 7.5
2017-Apr-23 08:00N 43°48' W 005°40'4 7.6
2017-Apr-23 07:29N 43°48' W 005°45'5 9.1
2017-Apr-23 06:58N 43°48' W 005°52'  
2017-Apr-18 03:01N 40°43' W 009°48'0 9.7
2017-Apr-18 03:01N 40°43' W 009°48'5 9.9
2017-Apr-18 02:30N 40°38' W 009°49'1210.0
2017-Apr-18 01:18N 40°25' W 009°49'410.0
2017-Apr-18 00:53N 40°21' W 009°49'4 9.7
2017-Apr-18 00:30N 40°18' W 009°49'5 9.4
2017-Apr-18 00:00N 40°13' W 009°50'5 9.6
2017-Apr-17 23:30N 40°08' W 009°50'510.0
2017-Apr-17 23:00N 40°03' W 009°50'9 9.8
2017-Apr-17 22:03N 39°54' W 009°50'0 9.9
2017-Apr-17 22:00N 39°53' W 009°50'5 9.8
2017-Apr-17 21:30N 39°49' W 009°50'5 9.6
2017-Apr-17 21:01N 39°44' W 009°50'5 9.8
2017-Apr-17 20:30N 39°39' W 009°50'5 9.5
2017-Apr-17 20:00N 39°34' W 009°50'5 9.3
2017-Apr-17 19:30N 39°29' W 009°50'5 9.4
2017-Apr-17 19:00N 39°25' W 009°50'5 9.6
2017-Apr-17 18:30N 39°20' W 009°50'5 9.7
2017-Apr-17 18:00N 39°15' W 009°51'5 9.2
2017-Apr-17 17:30N 39°10' W 009°51'5 9.2
2017-Apr-17 17:00N 39°06' W 009°51'5 9.2
2017-Apr-17 16:30N 39°01' W 009°51'5 9.1
2017-Apr-17 16:01N 38°57' W 009°51'5 9.4
2017-Apr-17 15:31N 38°52' W 009°50'5 9.7
2017-Apr-17 15:01N 38°47' W 009°50'9 9.4
2017-Apr-17 14:01N 38°38' W 009°49'5 9.4
2017-Apr-17 13:31N 38°33' W 009°48'5 9.7
2017-Apr-17 13:01N 38°29' W 009°47'5 9.9
2017-Apr-17 12:31N 38°24' W 009°45'510.0
2017-Apr-17 12:01N 38°19' W 009°44'510.2
2017-Apr-17 11:31N 38°14' W 009°42'510.1
2017-Apr-17 11:00N 38°09' W 009°41'510.1
2017-Apr-17 10:31N 38°04' W 009°40'510.2
2017-Apr-17 10:00N 37°59' W 009°38'510.0
2017-Apr-17 09:30N 37°54' W 009°37'510.1
2017-Apr-17 09:01N 37°49' W 009°35'510.2
2017-Apr-17 08:31N 37°44' W 009°34'510.7
2017-Apr-17 08:01N 37°39' W 009°32'510.7
2017-Apr-17 07:31N 37°34' W 009°31'510.6
2017-Apr-17 07:01N 37°29' W 009°30'510.5
2017-Apr-17 06:31N 37°24' W 009°28'510.5
2017-Apr-17 06:01N 37°19' W 009°26'510.8
2017-Apr-17 05:31N 37°13' W 009°25'510.7
2017-Apr-17 05:01N 37°08' W 009°23'510.6
2017-Apr-17 04:31N 37°03' W 009°22'510.6
2017-Apr-17 04:00N 36°58' W 009°21'510.3
2017-Apr-17 03:30N 36°53' W 009°19'510.3
2017-Apr-17 03:00N 36°49' W 009°14'510.2
2017-Apr-17 02:31N 36°46' W 009°10'510.0
2017-Apr-17 02:01N 36°43' W 009°04'510.4
2017-Apr-17 01:30N 36°42' W 008°58'6 9.7
2017-Apr-17 00:56N 36°37' W 008°54'610.6
2017-Apr-17 00:24N 36°32' W 008°51'410.9
2017-Apr-17 00:00N 36°28' W 008°49'510.9
2017-Apr-16 23:30N 36°23' W 008°47'  

Dump ship's entire track history